createdAt,value
2023-04-09T00:02:05.734Z,100957.25
2023-04-09T00:05:15.254Z,100958.59
2023-04-09T00:07:44.787Z,100963.47
2023-04-09T00:16:11.562Z,100949.81
2023-04-09T00:37:02.374Z,100939.75
2023-04-09T00:39:34.823Z,100952.50
2023-04-09T00:45:08.964Z,100940.53
2023-04-09T00:47:49.744Z,100933.91
2023-04-09T00:51:07.499Z,100933.00
2023-04-09T00:53:50.860Z,100936.47
2023-04-09T00:56:32.830Z,100936.00
2023-04-09T00:59:09.315Z,100941.06
2023-04-09T01:01:44.637Z,100932.53
2023-04-09T01:04:23.988Z,100941.44
2023-04-09T01:06:59.805Z,100937.03
2023-04-09T01:09:57.292Z,100933.84
2023-04-09T01:12:41.019Z,100938.84
2023-04-09T01:15:22.805Z,100932.75
2023-04-09T01:18:07.682Z,100932.31
2023-04-09T01:20:47.183Z,100932.25
2023-04-09T01:23:36.150Z,100934.81
2023-04-09T01:29:37.448Z,100936.09
2023-04-09T01:32:25.918Z,100946.69
2023-04-09T01:35:10.810Z,100937.34
2023-04-09T01:37:46.770Z,100938.25
2023-04-09T01:40:36.569Z,100935.00
2023-04-09T01:43:16.507Z,100939.25
2023-04-09T01:45:49.672Z,100938.06
2023-04-09T01:48:22.160Z,100939.34
2023-04-09T01:51:15.766Z,100944.16
2023-04-09T01:53:52.804Z,100936.16
2023-04-09T01:56:23.181Z,100937.91
2023-04-09T01:58:59.661Z,100936.78
2023-04-09T02:01:48.314Z,100938.59
2023-04-09T02:04:26.550Z,100944.88
2023-04-09T02:07:14.670Z,100941.00
2023-04-09T02:09:47.136Z,100944.75
2023-04-09T02:12:20.420Z,100947.44
2023-04-09T02:14:56.158Z,100943.72
2023-04-09T02:17:27.051Z,100936.16
2023-04-09T02:20:02.125Z,100941.25
2023-04-09T02:22:32.953Z,100940.09
2023-04-09T02:25:00.826Z,100946.63
2023-04-09T02:27:30.940Z,100952.16
2023-04-09T02:30:00.997Z,100945.34
2023-04-09T02:32:43.018Z,100945.34
2023-04-09T02:35:11.910Z,100940.06
2023-04-09T02:37:42.796Z,100940.59
2023-04-09T02:40:19.166Z,100939.63
2023-04-09T02:42:50.081Z,100938.88
2023-04-09T02:45:20.698Z,100932.66
2023-04-09T02:47:59.563Z,100940.44
2023-04-09T02:50:29.420Z,100944.75
2023-04-09T02:52:58.873Z,100942.38
2023-04-09T02:55:42.101Z,100942.69
2023-04-09T02:58:17.450Z,100940.00
2023-04-09T03:00:46.581Z,100939.44
2023-04-09T03:03:16.036Z,100934.63
2023-04-09T03:05:48.961Z,100943.16
2023-04-09T03:08:17.682Z,100928.63
2023-04-09T03:10:46.955Z,100933.84
2023-04-09T03:13:15.771Z,100936.22
2023-04-09T03:15:46.990Z,100929.63
2023-04-09T03:18:20.022Z,100934.00
2023-04-09T03:20:48.083Z,100926.31
2023-04-09T03:23:20.701Z,100931.34
2023-04-09T03:25:48.690Z,100924.19
2023-04-09T03:28:17.181Z,100926.31
2023-04-09T03:30:46.155Z,100928.25
2023-04-09T03:33:28.743Z,100925.75
2023-04-09T03:35:59.377Z,100932.06
2023-04-09T03:38:29.889Z,100924.38
2023-04-09T03:40:57.936Z,100927.19
2023-04-09T03:43:25.926Z,100929.69
2023-04-09T03:45:58.317Z,100925.22
2023-04-09T03:48:33.041Z,100925.09
2023-04-09T03:51:04.307Z,100922.47
2023-04-09T03:53:36.127Z,100924.16
2023-04-09T03:56:08.208Z,100921.50
2023-04-09T03:58:42.719Z,100919.53
2023-04-09T04:01:12.877Z,100927.25
2023-04-09T04:03:42.574Z,100930.31
2023-04-09T04:06:13.036Z,100926.97
2023-04-09T04:08:46.254Z,100925.88
2023-04-09T04:11:20.090Z,100927.25
2023-04-09T04:13:52.255Z,100920.84
2023-04-09T04:16:20.519Z,100920.31
2023-04-09T04:18:51.351Z,100926.59
2023-04-09T04:21:22.198Z,100930.00
2023-04-09T04:23:50.044Z,100923.31
2023-04-09T04:26:18.343Z,100925.00
2023-04-09T04:28:48.160Z,100922.25
2023-04-09T04:31:16.833Z,100921.78
2023-04-09T04:33:48.041Z,100924.34
2023-04-09T04:36:18.455Z,100928.13
2023-04-09T04:38:47.146Z,100934.56
2023-04-09T04:41:19.135Z,100934.31
2023-04-09T04:43:59.038Z,100939.31
2023-04-09T04:46:27.221Z,100933.16
2023-04-09T04:48:55.566Z,100942.09
2023-04-09T04:51:28.626Z,100936.47
2023-04-09T04:54:08.792Z,100950.41
2023-04-09T04:56:46.384Z,100947.03
2023-04-09T04:59:16.454Z,100953.75
2023-04-09T05:01:45.672Z,100951.91
2023-04-09T05:04:16.314Z,100951.78
2023-04-09T05:06:58.599Z,100954.72
2023-04-09T05:09:26.887Z,100954.72
2023-04-09T05:11:55.751Z,100951.78
2023-04-09T05:14:31.217Z,100949.50
2023-04-09T05:17:00.015Z,100954.53
2023-04-09T05:19:28.919Z,100948.75
2023-04-09T05:22:08.362Z,100956.41
2023-04-09T05:24:39.994Z,100951.91
2023-04-09T05:27:10.213Z,100957.13
2023-04-09T05:29:38.059Z,100958.25
2023-04-09T05:37:46.691Z,100956.00
2023-04-09T05:40:35.873Z,100962.59
2023-04-09T05:43:04.773Z,100960.53
2023-04-09T05:45:38.193Z,100962.28
2023-04-09T05:48:07.603Z,100961.97
2023-04-09T05:50:54.593Z,100968.16
2023-04-09T05:53:29.117Z,100967.94
2023-04-09T05:56:02.579Z,100970.06
2023-04-09T05:58:30.860Z,100970.28
2023-04-09T06:01:00.075Z,100973.13
2023-04-09T06:03:30.295Z,100972.63
2023-04-09T06:06:06.143Z,100969.53
2023-04-09T06:08:46.650Z,100966.47
2023-04-09T06:11:14.824Z,100968.19
2023-04-09T06:13:46.566Z,100966.53
2023-04-09T06:16:15.266Z,100959.59
2023-04-09T06:18:46.942Z,100965.09
2023-04-09T06:21:14.759Z,100964.88
2023-04-09T06:23:50.241Z,100962.81
2023-04-09T06:26:23.553Z,100963.38
2023-04-09T06:28:53.021Z,100965.03
2023-04-09T06:31:29.581Z,100962.97
2023-04-09T06:34:16.399Z,100965.44
2023-04-09T06:36:45.277Z,100958.28
2023-04-09T06:39:15.380Z,100963.66
2023-04-09T06:41:49.320Z,100973.69
2023-04-09T06:44:18.803Z,100975.53
2023-04-09T06:46:49.588Z,100985.69
2023-04-09T06:49:27.493Z,100979.94
2023-04-09T06:51:56.354Z,100982.31
2023-04-09T06:54:25.339Z,100979.50
2023-04-09T06:56:53.076Z,100984.03
2023-04-09T06:59:20.808Z,100975.72
2023-04-09T07:01:48.896Z,100978.72
2023-04-09T07:04:19.550Z,100975.75
2023-04-09T07:06:47.918Z,100965.19
2023-04-09T07:09:18.595Z,100970.38
2023-04-09T07:11:52.412Z,100976.13
2023-04-09T07:14:22.228Z,100964.28
2023-04-09T07:16:50.133Z,100970.59
2023-04-09T07:19:20.686Z,100969.22
2023-04-09T07:21:49.408Z,100974.44
2023-04-09T07:24:18.078Z,100971.84
2023-04-09T07:26:47.021Z,100974.44
2023-04-09T07:29:17.211Z,100967.47
2023-04-09T07:31:46.473Z,100974.22
2023-04-09T07:34:28.858Z,100974.22
2023-04-09T07:36:58.605Z,100967.69
2023-04-09T07:39:30.364Z,100971.53
2023-04-09T07:42:01.752Z,100970.41
2023-04-09T07:48:04.909Z,100975.31
2023-04-09T07:50:43.756Z,100972.69
2023-04-09T07:53:14.562Z,100984.78
2023-04-09T07:56:01.464Z,100989.41
2023-04-09T07:58:29.756Z,100981.22
2023-04-09T08:01:05.601Z,100983.47
2023-04-09T08:03:38.129Z,100994.03
2023-04-09T08:06:06.850Z,100985.91
2023-04-09T08:08:38.270Z,100983.09
2023-04-09T08:11:06.989Z,100983.22
2023-04-09T08:13:34.808Z,100989.44
2023-04-09T08:16:06.810Z,100986.66
2023-04-09T08:18:42.056Z,100980.41
2023-04-09T08:21:10.535Z,100984.81
2023-04-09T08:24:04.825Z,100991.09
2023-04-09T08:26:34.071Z,100983.44
2023-04-09T08:29:03.395Z,100986.75
2023-04-09T08:34:23.452Z,100978.94
2023-04-09T08:36:53.385Z,100989.63
2023-04-09T08:39:21.861Z,100985.66
2023-04-09T08:41:49.815Z,100996.91
2023-04-09T08:44:21.588Z,100993.84
2023-04-09T08:46:59.640Z,100992.00
2023-04-09T08:49:32.501Z,100990.19
2023-04-09T08:52:01.047Z,100996.75
2023-04-09T08:54:42.478Z,100988.16
2023-04-09T08:57:24.367Z,100982.22
2023-04-09T09:06:01.942Z,100985.19
2023-04-09T09:08:55.127Z,100987.69
2023-04-09T09:11:49.264Z,100974.59
2023-04-09T09:17:10.675Z,100977.53
2023-04-09T09:22:34.767Z,100975.16
2023-04-09T09:25:45.514Z,100975.94
2023-04-09T09:28:40.827Z,100971.22
2023-04-09T09:31:15.296Z,100972.97
2023-04-09T09:33:59.516Z,100968.28
2023-04-09T09:36:40.644Z,100955.28
2023-04-09T09:39:12.096Z,100967.06
2023-04-09T09:41:41.041Z,100961.47
2023-04-09T09:44:15.109Z,100961.78
2023-04-09T09:46:43.349Z,100955.28
2023-04-09T09:49:12.100Z,100954.06
2023-04-09T09:51:46.373Z,100968.44
2023-04-09T09:54:23.180Z,100961.72
2023-04-09T09:57:02.288Z,100954.22
2023-04-09T09:59:50.072Z,100950.16
2023-04-09T10:05:20.608Z,100954.91
2023-04-09T10:07:53.331Z,100948.91
2023-04-09T10:10:24.697Z,100945.91
2023-04-09T10:12:55.066Z,100941.03
2023-04-09T10:15:23.200Z,100935.94
2023-04-09T10:17:51.819Z,100939.03
2023-04-09T10:20:27.912Z,100937.66
2023-04-09T10:29:18.660Z,100919.25
2023-04-09T10:37:57.970Z,100916.13
2023-04-09T10:40:55.695Z,100912.16
2023-04-09T10:52:35.686Z,100910.22
2023-04-09T10:55:05.811Z,100904.09
2023-04-09T10:57:38.298Z,100908.59
2023-04-09T11:03:17.462Z,100912.03
2023-04-09T11:06:15.252Z,100914.19
2023-04-09T11:11:34.290Z,100905.84
2023-04-09T11:14:05.071Z,100909.66
2023-04-09T11:16:35.709Z,100907.72
2023-04-09T11:19:10.389Z,100899.94
2023-04-09T11:21:38.981Z,100908.19
2023-04-09T11:24:16.338Z,100905.88
2023-04-09T11:26:57.830Z,100901.28
2023-04-09T11:29:42.863Z,100895.06
2023-04-09T11:35:04.033Z,100885.75
2023-04-09T11:43:22.106Z,100892.16
2023-04-09T11:45:57.842Z,100881.56
2023-04-09T11:54:23.809Z,100879.78
2023-04-09T11:57:20.546Z,100886.53
2023-04-09T11:59:58.452Z,100880.88
2023-04-09T12:02:36.539Z,100885.75
2023-04-09T12:05:06.918Z,100884.06
2023-04-09T12:07:46.346Z,100882.16
2023-04-09T12:10:31.182Z,100876.63
2023-04-09T12:13:06.746Z,100888.31
2023-04-09T12:15:47.823Z,100887.25
2023-04-09T12:18:57.654Z,100876.72
2023-04-09T12:21:39.118Z,100868.81
2023-04-09T12:24:39.924Z,100872.75
2023-04-09T12:27:27.409Z,100875.41
2023-04-09T12:30:08.191Z,100871.00
2023-04-09T12:32:37.015Z,100867.88
2023-04-09T12:35:10.235Z,100863.25
2023-04-09T12:37:40.935Z,100859.31
2023-04-09T12:40:18.854Z,100859.09
2023-04-09T12:43:06.336Z,100847.56
2023-04-09T12:46:01.928Z,100853.50
2023-04-09T12:52:17.881Z,100842.88
2023-04-09T13:00:58.592Z,100831.50
2023-04-09T13:06:23.343Z,100827.44
2023-04-09T13:09:24.132Z,100822.47
2023-04-09T13:15:15.447Z,100809.28
2023-04-09T13:18:12.454Z,100808.41
2023-04-09T13:23:30.763Z,100809.88
2023-04-09T13:26:13.975Z,100808.66
2023-04-09T13:28:49.528Z,100808.50
2023-04-09T13:31:22.201Z,100813.06
2023-04-09T13:36:49.684Z,100798.59
2023-04-09T13:42:48.636Z,100787.75
2023-04-09T13:51:43.677Z,100781.81
2023-04-09T13:55:20.445Z,100769.97
2023-04-09T14:01:35.076Z,100775.38
2023-04-09T14:05:06.086Z,100765.00
2023-04-09T14:08:05.854Z,100769.16
2023-04-09T14:14:03.684Z,100764.00
2023-04-09T14:19:40.065Z,100758.03
2023-04-09T14:25:33.821Z,100762.28
2023-04-09T14:28:19.340Z,100764.78
2023-04-09T14:34:04.510Z,100773.09
2023-04-09T14:36:41.290Z,100762.28
2023-04-09T14:42:28.263Z,100764.66
2023-04-09T14:45:09.470Z,100759.16
2023-04-09T14:47:48.818Z,100750.78
2023-04-09T14:50:41.408Z,100755.06
2023-04-09T14:56:41.803Z,100746.75
2023-04-09T14:59:52.621Z,100748.66
2023-04-09T15:02:24.937Z,100753.44
2023-04-09T15:05:13.797Z,100734.69
2023-04-09T15:07:44.229Z,100733.09
2023-04-09T15:10:18.211Z,100724.91
2023-04-09T15:13:32.325Z,100721.72
2023-04-09T15:16:06.414Z,100720.69
2023-04-09T15:18:48.066Z,100722.41
2023-04-09T15:21:41.148Z,100719.91
2023-04-09T15:24:22.477Z,100717.44
2023-04-09T15:26:52.881Z,100714.09
2023-04-09T15:29:25.241Z,100721.97
2023-04-09T15:31:54.721Z,100720.09
2023-04-09T15:37:17.702Z,100728.56
2023-04-09T15:39:59.184Z,100729.75
2023-04-09T15:42:27.602Z,100727.63
2023-04-09T15:45:14.476Z,100724.34
2023-04-09T15:47:45.490Z,100724.75
2023-04-09T15:50:18.173Z,100718.97
2023-04-09T15:53:01.127Z,100717.41
2023-04-09T15:55:31.119Z,100721.59
2023-04-09T15:58:07.000Z,100717.22
2023-04-09T16:00:36.708Z,100720.34
2023-04-09T16:03:17.145Z,100717.44
2023-04-09T16:06:09.164Z,100721.78
2023-04-09T16:09:14.245Z,100721.38
2023-04-09T16:11:45.103Z,100715.53
2023-04-09T16:14:29.430Z,100727.19
2023-04-09T16:17:05.110Z,100724.44
2023-04-09T16:19:34.215Z,100718.59
2023-04-09T16:32:04.366Z,100708.88
2023-04-09T16:34:50.974Z,100704.47
2023-04-09T16:37:43.534Z,100697.00
2023-04-09T16:40:48.901Z,100708.06
2023-04-09T16:52:35.477Z,100704.88
2023-04-09T16:58:16.414Z,100710.50
2023-04-09T17:01:34.492Z,100711.69
2023-04-09T17:07:33.031Z,100702.56
2023-04-09T17:10:20.443Z,100705.25
2023-04-09T17:12:48.660Z,100699.63
2023-04-09T17:15:18.119Z,100696.94
2023-04-09T17:23:33.155Z,100709.13
2023-04-09T17:26:02.249Z,100719.91
2023-04-09T17:28:31.643Z,100714.28
2023-04-09T17:31:19.199Z,100718.16
2023-04-09T17:34:06.993Z,100712.03
2023-04-09T17:36:37.055Z,100709.50
2023-04-09T17:39:52.525Z,100722.56
2023-04-09T17:42:26.222Z,100723.88
2023-04-09T17:57:58.310Z,100721.38
2023-04-09T18:00:46.737Z,100717.69
2023-04-09T18:03:24.721Z,100720.41
2023-04-09T18:06:10.174Z,100729.53
2023-04-09T18:09:03.439Z,100733.19
2023-04-09T18:11:35.613Z,100739.06
2023-04-09T18:16:55.816Z,100745.09
2023-04-09T18:19:49.004Z,100742.22
2023-04-09T18:22:22.010Z,100745.22
2023-04-09T18:28:14.084Z,100761.56
2023-04-09T18:31:18.688Z,100754.06
2023-04-09T18:33:57.684Z,100758.91
2023-04-09T18:37:05.540Z,100759.53
2023-04-09T18:42:36.002Z,100765.81
2023-04-09T18:55:54.597Z,100775.69
2023-04-09T18:58:49.215Z,100786.53
2023-04-09T19:04:39.011Z,100785.00
2023-04-09T19:10:47.172Z,100772.19
2023-04-09T19:16:42.770Z,100780.34
2023-04-09T19:22:49.615Z,100787.84
2023-04-09T19:26:00.506Z,100791.44
2023-04-09T19:28:54.437Z,100794.31
2023-04-09T19:34:32.301Z,100786.41
2023-04-09T19:37:13.739Z,100788.44
2023-04-09T19:39:42.010Z,100794.44
2023-04-09T19:42:11.061Z,100801.78
2023-04-09T19:44:38.800Z,100810.09
2023-04-09T19:47:10.245Z,100804.63
2023-04-09T19:49:45.928Z,100804.28
2023-04-09T19:52:38.886Z,100792.97
2023-04-09T19:55:26.014Z,100801.53
2023-04-09T19:58:11.072Z,100796.78
2023-04-09T20:00:41.201Z,100792.31
2023-04-09T20:03:23.623Z,100789.41
2023-04-09T20:06:04.125Z,100797.91
2023-04-09T20:08:31.773Z,100803.06
2023-04-09T20:11:02.511Z,100794.13
2023-04-09T20:13:36.824Z,100794.69
2023-04-09T20:16:28.161Z,100793.28
2023-04-09T20:18:57.908Z,100797.44
2023-04-09T20:24:34.203Z,100799.22
2023-04-09T20:35:43.848Z,100801.28
2023-04-09T20:38:20.256Z,100798.78
2023-04-09T20:40:48.137Z,100807.16
2023-04-09T20:43:31.686Z,100803.78
2023-04-09T20:46:02.689Z,100813.53
2023-04-09T20:48:46.151Z,100801.66
2023-04-09T20:51:17.908Z,100808.38
2023-04-09T20:53:51.965Z,100806.84
2023-04-09T20:56:21.457Z,100802.53
2023-04-09T20:58:50.559Z,100812.88
2023-04-09T21:01:43.586Z,100817.53
2023-04-09T21:04:16.321Z,100816.34
2023-04-09T21:06:46.168Z,100814.66
2023-04-09T21:09:21.920Z,100821.06
2023-04-09T21:11:49.767Z,100828.59
2023-04-09T21:14:23.376Z,100830.09
2023-04-09T21:16:52.631Z,100821.22
2023-04-09T21:19:26.500Z,100821.03
2023-04-09T21:21:55.686Z,100816.41
2023-04-09T21:27:08.726Z,100815.44
2023-04-09T21:29:36.481Z,100817.28
2023-04-09T21:32:28.066Z,100809.94
2023-04-09T21:34:57.987Z,100804.75
2023-04-09T21:37:29.697Z,100811.78
2023-04-09T21:40:12.764Z,100811.25
2023-04-09T21:42:42.284Z,100809.59
2023-04-09T21:45:13.116Z,100801.91
2023-04-09T21:47:42.051Z,100805.56
2023-04-09T21:50:13.412Z,100803.25
2023-04-09T21:52:42.414Z,100812.44
2023-04-09T21:55:14.292Z,100813.06
2023-04-09T21:57:44.611Z,100812.41
2023-04-09T22:00:19.093Z,100813.44
2023-04-09T22:02:49.536Z,100816.28
2023-04-09T22:08:02.839Z,100823.09
2023-04-09T22:10:44.961Z,100818.25
2023-04-09T22:13:18.874Z,100828.16
2023-04-09T22:15:47.014Z,100826.66
2023-04-09T22:18:14.753Z,100812.78
2023-04-09T22:20:43.872Z,100813.13
2023-04-09T22:23:12.561Z,100818.94
2023-04-09T22:25:41.703Z,100825.94
2023-04-09T22:28:10.058Z,100818.88
2023-04-09T22:33:39.085Z,100826.78
2023-04-09T22:36:14.849Z,100836.16
2023-04-09T22:38:43.879Z,100829.16
2023-04-09T22:41:41.297Z,100825.28
2023-04-09T22:44:11.523Z,100841.56
2023-04-09T22:46:41.837Z,100826.97
2023-04-09T22:49:16.379Z,100827.97
2023-04-09T22:51:48.349Z,100824.59
2023-04-09T22:54:31.927Z,100822.50
2023-04-09T22:57:11.065Z,100818.81
2023-04-09T22:59:43.293Z,100826.38
2023-04-09T23:02:17.173Z,100823.66
2023-04-09T23:04:56.206Z,100822.59
2023-04-09T23:10:09.381Z,100821.34
2023-04-09T23:12:40.710Z,100830.50
2023-04-09T23:15:18.164Z,100832.97
2023-04-09T23:18:01.922Z,100830.44
2023-04-09T23:20:33.300Z,100837.72
2023-04-09T23:23:01.239Z,100835.84
2023-04-09T23:25:31.460Z,100839.00
2023-04-09T23:28:00.530Z,100836.59
2023-04-09T23:30:36.001Z,100832.69
2023-04-09T23:33:13.826Z,100828.19
2023-04-09T23:35:43.916Z,100830.50
2023-04-09T23:38:15.625Z,100830.50
2023-04-09T23:40:44.114Z,100820.84
2023-04-09T23:43:31.242Z,100832.84
2023-04-09T23:46:08.960Z,100832.75
2023-04-09T23:48:37.095Z,100831.03
2023-04-09T23:51:14.057Z,100834.13
2023-04-09T23:53:43.850Z,100827.59
2023-04-09T23:56:12.676Z,100829.50
2023-04-09T23:58:42.972Z,100826.38
